createdAt,value
2018-05-10T00:01:17.758Z,97642.02
2018-05-10T00:03:45.243Z,97632.61
2018-05-10T00:06:12.786Z,97635.38
2018-05-10T00:08:40.325Z,97636.30
2018-05-10T00:11:07.895Z,97637.10
2018-05-10T00:13:35.387Z,97636.42
2018-05-10T00:16:02.842Z,97636.47
2018-05-10T00:18:30.354Z,97641.73
2018-05-10T00:20:58.413Z,97626.89
2018-05-10T00:23:25.982Z,97640.55
2018-05-10T00:25:53.462Z,97636.98
2018-05-10T00:28:20.959Z,97645.81
2018-05-10T00:30:51.115Z,97649.22
2018-05-10T00:33:18.878Z,97652.01
2018-05-10T00:35:46.372Z,97641.20
2018-05-10T00:38:13.923Z,97648.73
2018-05-10T00:40:43.303Z,97642.44
2018-05-10T00:43:10.792Z,97642.20
2018-05-10T00:45:38.259Z,97645.64
2018-05-10T00:48:05.744Z,97647.36
2018-05-10T00:50:36.130Z,97647.88
2018-05-10T00:53:03.687Z,97648.29
2018-05-10T00:55:31.171Z,97644.05
2018-05-10T00:57:58.661Z,97644.11
2018-05-10T01:00:28.335Z,97644.34
2018-05-10T01:02:55.800Z,97639.00
2018-05-10T01:05:23.476Z,97645.45
2018-05-10T01:07:50.995Z,97646.17
2018-05-10T01:10:21.011Z,97646.81
2018-05-10T01:12:48.550Z,97647.62
2018-05-10T01:15:16.036Z,97641.05
2018-05-10T01:17:43.593Z,97644.05
2018-05-10T01:20:13.299Z,97641.11
2018-05-10T01:22:40.791Z,97642.80
2018-05-10T01:25:08.274Z,97643.59
2018-05-10T01:27:35.734Z,97650.88
2018-05-10T01:30:06.100Z,97660.42
2018-05-10T01:32:33.570Z,97661.22
2018-05-10T01:35:12.891Z,97654.26
2018-05-10T01:37:40.446Z,97660.27
2018-05-10T01:40:08.050Z,97659.34
2018-05-10T01:42:35.519Z,97673.03
2018-05-10T01:45:03.110Z,97667.30
2018-05-10T01:47:30.578Z,97667.55
2018-05-10T01:49:58.068Z,97666.61
2018-05-10T01:52:25.541Z,97668.37
2018-05-10T01:54:53.037Z,97675.67
2018-05-10T01:57:20.515Z,97676.41
2018-05-10T01:59:48.992Z,97680.52
2018-05-10T02:02:16.458Z,97689.07
2018-05-10T02:04:44.056Z,97685.78
2018-05-10T02:07:11.578Z,97685.67
2018-05-10T02:09:40.762Z,97680.59
2018-05-10T02:12:08.218Z,97687.89
2018-05-10T02:14:35.796Z,97686.05
2018-05-10T02:17:03.336Z,97700.56
2018-05-10T02:19:33.063Z,97697.03
2018-05-10T02:22:00.523Z,97698.91
2018-05-10T02:24:28.079Z,97693.27
2018-05-10T02:26:55.638Z,97690.97
2018-05-10T02:29:25.727Z,97698.11
2018-05-10T02:31:53.210Z,97695.82
2018-05-10T02:34:20.734Z,97697.27
2018-05-10T02:36:48.227Z,97698.42
2018-05-10T02:39:17.944Z,97705.69
2018-05-10T02:41:45.508Z,97703.81
2018-05-10T02:44:13.067Z,97712.41
2018-05-10T02:46:40.640Z,97710.64
2018-05-10T02:49:10.615Z,97712.99
2018-05-10T02:51:38.309Z,97711.16
2018-05-10T02:54:05.770Z,97717.70
2018-05-10T02:56:33.259Z,97721.85
2018-05-10T02:59:02.831Z,97723.62
2018-05-10T03:01:30.366Z,97722.69
2018-05-10T03:03:57.827Z,97726.04
2018-05-10T03:06:25.408Z,97722.86
2018-05-10T03:08:55.531Z,97727.11
2018-05-10T03:11:23.125Z,97732.34
2018-05-10T03:13:50.647Z,97726.75
2018-05-10T03:16:18.207Z,97724.05
2018-05-10T03:18:47.815Z,97721.25
2018-05-10T03:21:15.304Z,97722.68
2018-05-10T03:23:42.874Z,97726.58
2018-05-10T03:26:10.367Z,97729.05
2018-05-10T03:28:40.479Z,97731.66
2018-05-10T03:31:07.977Z,97733.38
2018-05-10T03:33:35.435Z,97739.89
2018-05-10T03:36:02.979Z,97742.09
2018-05-10T03:38:32.735Z,97753.74
2018-05-10T03:41:00.159Z,97745.09
2018-05-10T03:43:27.652Z,97748.64
2018-05-10T03:45:55.163Z,97750.73
2018-05-10T03:48:25.396Z,97756.14
2018-05-10T03:50:52.875Z,97762.72
2018-05-10T03:53:20.371Z,97767.87
2018-05-10T03:55:47.871Z,97774.61
2018-05-10T03:58:17.751Z,97780.59
2018-05-10T04:00:45.230Z,97780.59
2018-05-10T04:06:25.582Z,97799.63
2018-05-10T04:09:04.941Z,97806.72
2018-05-10T04:11:32.403Z,97814.81
2018-05-10T04:13:59.887Z,97827.11
2018-05-10T04:16:27.352Z,97844.02
2018-05-10T04:18:54.838Z,97855.07
2018-05-10T04:21:22.342Z,97872.84
2018-05-10T04:23:49.902Z,97887.24
2018-05-10T04:26:17.458Z,97889.28
2018-05-10T04:28:44.950Z,97899.27
2018-05-10T04:31:12.410Z,97899.47
2018-05-10T04:33:39.895Z,97892.27
2018-05-10T04:36:07.379Z,97896.05
2018-05-10T04:38:34.879Z,97899.91
2018-05-10T04:41:02.414Z,97897.28
2018-05-10T04:43:29.894Z,97895.60
2018-05-10T04:45:57.350Z,97906.20
2018-05-10T04:48:24.887Z,97904.61
2018-05-10T04:50:52.347Z,97912.91
2018-05-10T04:53:20.307Z,97913.25
2018-05-10T04:55:47.870Z,97912.02
2018-05-10T04:58:15.434Z,97914.75
2018-05-10T05:00:43.002Z,97913.74
2018-05-10T05:03:10.658Z,97927.41
2018-05-10T05:05:38.214Z,97927.42
2018-05-10T05:08:05.711Z,97924.20
2018-05-10T05:10:33.233Z,97929.88
2018-05-10T05:13:00.697Z,97933.55
2018-05-10T05:15:28.200Z,97929.11
2018-05-10T05:17:55.694Z,97937.39
2018-05-10T05:20:23.196Z,97933.31
2018-05-10T05:22:50.727Z,97928.44
2018-05-10T05:25:18.222Z,97929.44
2018-05-10T05:27:45.743Z,97928.95
2018-05-10T05:30:13.228Z,97931.97
2018-05-10T05:32:40.698Z,97942.23
2018-05-10T05:35:08.193Z,97935.09
2018-05-10T05:37:35.675Z,97946.77
2018-05-10T05:40:03.242Z,97940.47
2018-05-10T05:42:30.716Z,97941.33
2018-05-10T05:44:58.234Z,97940.40
2018-05-10T05:47:25.710Z,97944.87
2018-05-10T05:49:53.195Z,97947.03
2018-05-10T05:52:20.674Z,97949.13
2018-05-10T05:54:48.160Z,97945.44
2018-05-10T05:57:15.628Z,97947.12
2018-05-10T05:59:43.115Z,97957.13
2018-05-10T06:02:10.586Z,97963.01
2018-05-10T06:04:38.214Z,97954.94
2018-05-10T06:07:05.675Z,97960.50
2018-05-10T06:09:33.224Z,97964.37
2018-05-10T06:12:00.685Z,97966.15
2018-05-10T06:14:28.186Z,97974.79
2018-05-10T06:16:55.650Z,97967.91
2018-05-10T06:19:23.194Z,97973.53
2018-05-10T06:21:50.735Z,97971.17
2018-05-10T06:24:18.194Z,97975.70
2018-05-10T06:26:45.684Z,97972.42
2018-05-10T06:29:13.147Z,97976.04
2018-05-10T06:31:40.658Z,97976.04
2018-05-10T06:34:08.190Z,97979.16
2018-05-10T06:36:35.680Z,97985.45
2018-05-10T06:39:03.147Z,97983.09
2018-05-10T06:41:30.949Z,97987.80
2018-05-10T06:43:58.347Z,97987.14
2018-05-10T06:46:25.852Z,97989.48
2018-05-10T06:48:53.383Z,97994.77
2018-05-10T06:51:20.896Z,97996.71
2018-05-10T06:53:48.420Z,98000.59
2018-05-10T06:56:15.919Z,97999.84
2018-05-10T06:58:43.382Z,97999.85
2018-05-10T07:01:10.987Z,97992.64
2018-05-10T07:03:38.449Z,97996.50
2018-05-10T07:06:05.942Z,97995.75
2018-05-10T07:08:33.418Z,98011.23
2018-05-10T07:11:01.010Z,98012.17
2018-05-10T07:13:28.577Z,98012.66
2018-05-10T07:15:56.223Z,98012.73
2018-05-10T07:18:23.795Z,98013.33
2018-05-10T07:20:51.287Z,98022.33
2018-05-10T07:23:19.011Z,98020.23
2018-05-10T07:25:46.499Z,98022.23
2018-05-10T07:28:13.978Z,98028.38
2018-05-10T07:30:41.455Z,98036.08
2018-05-10T07:33:08.951Z,98036.57
2018-05-10T07:35:36.507Z,98039.38
2018-05-10T07:38:04.006Z,98039.33
2018-05-10T07:40:31.475Z,98041.86
2018-05-10T07:42:59.002Z,98043.69
2018-05-10T07:45:26.467Z,98046.80
2018-05-10T07:47:53.942Z,98058.10
2018-05-10T07:50:21.411Z,98058.62
2018-05-10T07:52:48.934Z,98062.16
2018-05-10T07:55:16.398Z,98066.94
2018-05-10T07:57:43.961Z,98074.98
2018-05-10T08:00:11.454Z,98073.58
2018-05-10T08:02:38.945Z,98070.47
2018-05-10T08:05:06.515Z,98078.53
2018-05-10T08:07:34.000Z,98081.35
2018-05-10T08:10:01.477Z,98075.53
2018-05-10T08:12:28.986Z,98081.02
2018-05-10T08:14:56.454Z,98085.71
2018-05-10T08:17:24.134Z,98090.27
2018-05-10T08:19:51.784Z,98091.88
2018-05-10T08:22:19.292Z,98091.09
2018-05-10T08:24:46.783Z,98099.69
2018-05-10T08:27:14.300Z,98097.25
2018-05-10T08:29:47.600Z,98096.25
2018-05-10T08:32:15.194Z,98097.67
2018-05-10T08:34:42.759Z,98101.05
2018-05-10T08:37:10.222Z,98099.95
2018-05-10T08:39:37.770Z,98104.41
2018-05-10T08:42:05.231Z,98106.42
2018-05-10T08:44:32.739Z,98111.91
2018-05-10T08:47:00.227Z,98116.63
2018-05-10T08:49:27.711Z,98112.48
2018-05-10T08:51:55.399Z,98114.60
2018-05-10T08:54:22.806Z,98112.84
2018-05-10T08:56:50.267Z,98122.20
2018-05-10T08:59:17.750Z,98119.48
2018-05-10T09:01:45.227Z,98119.63
2018-05-10T09:04:12.748Z,98128.46
2018-05-10T09:06:40.233Z,98130.45
2018-05-10T09:09:07.731Z,98127.50
2018-05-10T09:11:35.242Z,98135.11
2018-05-10T09:14:02.735Z,98139.55
2018-05-10T09:16:30.203Z,98141.59
2018-05-10T09:18:57.702Z,98144.39
2018-05-10T09:21:25.269Z,98143.27
2018-05-10T09:23:52.777Z,98143.11
2018-05-10T09:26:20.262Z,98143.15
2018-05-10T09:28:47.789Z,98151.41
2018-05-10T09:31:15.291Z,98151.84
2018-05-10T09:33:42.879Z,98147.55
2018-05-10T09:36:10.447Z,98147.68
2018-05-10T09:38:37.934Z,98154.88
2018-05-10T09:41:05.421Z,98152.40
2018-05-10T09:43:32.935Z,98160.02
2018-05-10T09:46:00.454Z,98164.90
2018-05-10T09:48:27.968Z,98165.59
2018-05-10T09:50:55.490Z,98169.64
2018-05-10T09:53:23.032Z,98174.86
2018-05-10T09:55:50.620Z,98174.34
2018-05-10T09:58:18.089Z,98189.64
2018-05-10T10:00:45.628Z,98188.45
2018-05-10T10:03:13.095Z,98189.31
2018-05-10T10:05:40.616Z,98188.34
2018-05-10T10:08:08.266Z,98188.48
2018-05-10T10:10:35.735Z,98193.17
2018-05-10T10:13:03.218Z,98198.89
2018-05-10T10:15:30.754Z,98200.53
2018-05-10T10:17:58.335Z,98207.79
2018-05-10T10:20:25.823Z,98207.14
2018-05-10T10:22:53.306Z,98209.09
2018-05-10T10:25:20.898Z,98202.94
2018-05-10T10:27:48.313Z,98207.61
2018-05-10T10:30:15.820Z,98215.64
2018-05-10T10:32:43.291Z,98213.84
2018-05-10T10:35:10.831Z,98224.05
2018-05-10T10:37:38.313Z,98216.30
2018-05-10T10:40:05.838Z,98222.40
2018-05-10T10:42:33.316Z,98231.89
2018-05-10T10:45:00.809Z,98233.99
2018-05-10T10:47:28.287Z,98236.27
2018-05-10T10:49:55.775Z,98240.65
2018-05-10T10:52:23.290Z,98244.80
2018-05-10T10:54:50.797Z,98254.13
2018-05-10T10:57:18.264Z,98254.22
2018-05-10T10:59:45.827Z,98256.55
2018-05-10T11:02:13.483Z,98262.83
2018-05-10T11:04:40.949Z,98267.51
2018-05-10T11:07:08.479Z,98270.90
2018-05-10T11:09:35.935Z,98279.52
2018-05-10T11:12:03.532Z,98283.37
2018-05-10T11:14:31.070Z,98299.83
2018-05-10T11:16:58.567Z,98297.14
2018-05-10T11:19:26.034Z,98308.22
2018-05-10T11:21:53.519Z,98308.08
2018-05-10T11:24:21.015Z,98315.19
2018-05-10T11:26:48.493Z,98325.38
2018-05-10T11:29:16.022Z,98327.29
2018-05-10T11:31:43.510Z,98336.27
2018-05-10T11:34:11.051Z,98330.62
2018-05-10T11:36:38.703Z,98342.64
2018-05-10T11:39:06.208Z,98345.48
2018-05-10T11:41:33.718Z,98351.59
2018-05-10T11:44:01.293Z,98354.20
2018-05-10T11:46:28.770Z,98360.77
2018-05-10T11:48:56.257Z,98368.05
2018-05-10T11:51:23.764Z,98366.98
2018-05-10T11:53:51.340Z,98369.83
2018-05-10T11:56:18.838Z,98375.05
2018-05-10T11:58:46.315Z,98376.55
2018-05-10T12:01:13.798Z,98384.59
2018-05-10T12:03:41.349Z,98392.95
2018-05-10T12:06:08.985Z,98394.08
2018-05-10T12:08:36.502Z,98402.25
2018-05-10T12:11:03.987Z,98406.15
2018-05-10T12:13:31.498Z,98404.41
2018-05-10T12:15:58.962Z,98410.69
2018-05-10T12:18:26.454Z,98411.23
2018-05-10T12:20:53.931Z,98415.00
2018-05-10T12:23:21.418Z,98415.58
2018-05-10T12:25:48.978Z,98417.08
2018-05-10T12:28:16.571Z,98430.91
2018-05-10T12:30:44.043Z,98430.47
2018-05-10T12:33:11.562Z,98439.04
2018-05-10T12:35:39.036Z,98438.70
2018-05-10T12:38:06.575Z,98443.02
2018-05-10T12:40:35.031Z,98450.20
2018-05-10T12:43:02.538Z,98458.41
2018-05-10T12:45:30.013Z,98463.64
2018-05-10T12:47:58.475Z,98464.00
2018-05-10T12:50:25.955Z,98469.45
2018-05-10T12:52:53.546Z,98471.73
2018-05-10T12:55:21.047Z,98482.47
2018-05-10T12:57:48.566Z,98483.34
2018-05-10T13:00:16.050Z,98496.88
2018-05-10T13:02:43.670Z,98503.73
2018-05-10T13:05:11.091Z,98513.70
2018-05-10T13:07:38.715Z,98518.88
2018-05-10T13:10:06.205Z,98514.39
2018-05-10T13:12:33.704Z,98531.64
2018-05-10T13:15:01.166Z,98535.33
2018-05-10T13:17:28.805Z,98533.94
2018-05-10T13:19:56.309Z,98536.02
2018-05-10T13:22:23.992Z,98542.53
2018-05-10T13:24:51.490Z,98545.59
2018-05-10T13:27:18.963Z,98547.66
2018-05-10T13:29:46.473Z,98555.75
2018-05-10T13:32:13.972Z,98561.88
2018-05-10T13:34:41.526Z,98566.83
2018-05-10T13:37:09.015Z,98565.22
2018-05-10T13:39:36.525Z,98570.61
2018-05-10T13:42:04.027Z,98574.14
2018-05-10T13:44:31.514Z,98581.05
2018-05-10T13:46:59.033Z,98577.73
2018-05-10T13:49:26.551Z,98581.39
2018-05-10T13:51:54.032Z,98588.53
2018-05-10T13:54:21.563Z,98598.43
2018-05-10T13:56:49.093Z,98595.99
2018-05-10T13:59:16.611Z,98600.23
2018-05-10T14:01:44.069Z,98606.61
2018-05-10T14:04:11.595Z,98601.95
2018-05-10T14:06:39.083Z,98598.61
2018-05-10T14:09:06.566Z,98602.08
2018-05-10T14:11:34.031Z,98611.66
2018-05-10T14:14:01.601Z,98613.23
2018-05-10T14:16:29.086Z,98618.14
2018-05-10T14:18:56.575Z,98620.62
2018-05-10T14:21:24.075Z,98630.05
2018-05-10T14:23:51.732Z,98636.06
2018-05-10T14:26:19.243Z,98640.98
2018-05-10T14:28:46.815Z,98642.97
2018-05-10T14:31:14.339Z,98647.88
2018-05-10T14:33:41.814Z,98647.10
2018-05-10T14:36:09.311Z,98647.92
2018-05-10T14:38:36.794Z,98648.66
2018-05-10T14:41:04.410Z,98654.87
2018-05-10T14:43:31.879Z,98652.83
2018-05-10T14:45:59.379Z,98664.42
2018-05-10T14:48:26.854Z,98666.28
2018-05-10T14:50:54.339Z,98662.05
2018-05-10T14:53:21.875Z,98662.14
2018-05-10T14:55:49.368Z,98661.89
2018-05-10T14:58:16.831Z,98665.20
2018-05-10T15:00:44.350Z,98672.21
2018-05-10T15:03:11.863Z,98671.40
2018-05-10T15:05:39.370Z,98679.69
2018-05-10T15:08:06.832Z,98673.53
2018-05-10T15:10:34.367Z,98670.38
2018-05-10T15:13:01.847Z,98676.00
2018-05-10T15:15:29.422Z,98677.97
2018-05-10T15:17:57.116Z,98682.59
2018-05-10T15:20:24.615Z,98676.39
2018-05-10T15:22:52.104Z,98680.60
2018-05-10T15:25:19.611Z,98678.66
2018-05-10T15:27:47.076Z,98679.41
2018-05-10T15:30:14.602Z,98673.23
2018-05-10T15:32:42.087Z,98678.91
2018-05-10T15:35:09.559Z,98686.06
2018-05-10T15:37:37.079Z,98681.56
2018-05-10T15:40:04.547Z,98675.23
2018-05-10T15:42:32.063Z,98672.57
2018-05-10T15:44:59.531Z,98671.31
2018-05-10T15:47:27.015Z,98678.95
2018-05-10T15:49:54.549Z,98675.16
2018-05-10T15:52:22.060Z,98678.94
2018-05-10T15:54:49.514Z,98682.41
2018-05-10T15:57:17.006Z,98683.63
2018-05-10T15:59:44.468Z,98681.83
2018-05-10T16:02:12.153Z,98677.25
2018-05-10T16:04:39.626Z,98679.03
2018-05-10T16:07:07.179Z,98681.91
2018-05-10T16:09:34.740Z,98679.68
2018-05-10T16:12:02.224Z,98678.66
2018-05-10T16:14:29.715Z,98672.77
2018-05-10T16:16:57.198Z,98678.84
2018-05-10T16:19:24.730Z,98678.61
2018-05-10T16:21:52.226Z,98676.41
2018-05-10T16:24:19.694Z,98675.55
2018-05-10T16:26:47.245Z,98682.64
2018-05-10T16:29:14.793Z,98682.73
2018-05-10T16:31:42.286Z,98693.66
2018-05-10T16:34:09.853Z,98692.99
2018-05-10T16:36:37.387Z,98699.00
2018-05-10T16:39:05.722Z,98699.91
2018-05-10T16:41:33.192Z,98707.54
2018-05-10T16:44:00.679Z,98705.87
2018-05-10T16:46:28.379Z,98708.14
2018-05-10T16:48:55.883Z,98706.20
2018-05-10T16:51:23.375Z,98702.28
2018-05-10T16:53:50.857Z,98705.11
2018-05-10T16:56:18.377Z,98704.00
2018-05-10T16:58:46.063Z,98708.78
2018-05-10T17:01:13.527Z,98705.02
2018-05-10T17:03:41.109Z,98702.84
2018-05-10T17:06:08.575Z,98706.21
2018-05-10T17:08:36.094Z,98707.50
2018-05-10T17:11:03.694Z,98707.59
2018-05-10T17:13:31.222Z,98704.59
2018-05-10T17:15:58.684Z,98706.01
2018-05-10T17:18:26.219Z,98705.30
2018-05-10T17:20:53.663Z,98708.81
2018-05-10T17:23:21.266Z,98719.53
2018-05-10T17:25:48.803Z,98718.65
2018-05-10T17:28:16.297Z,98727.77
2018-05-10T17:30:43.895Z,98730.34
2018-05-10T17:33:11.417Z,98737.94
2018-05-10T17:35:39.160Z,98741.27
2018-05-10T17:38:06.650Z,98744.17
2018-05-10T17:40:34.131Z,98744.80
2018-05-10T17:43:01.619Z,98751.74
2018-05-10T17:45:29.117Z,98751.70
2018-05-10T17:47:56.613Z,98752.06
2018-05-10T17:50:24.118Z,98759.08
2018-05-10T17:52:51.687Z,98756.75
2018-05-10T17:55:19.175Z,98757.06
2018-05-10T17:57:46.751Z,98759.00
2018-05-10T18:00:14.439Z,98755.55
2018-05-10T18:02:41.904Z,98767.47
2018-05-10T18:05:09.398Z,98772.10
2018-05-10T18:07:36.910Z,98775.44
2018-05-10T18:10:04.406Z,98784.55
2018-05-10T18:12:31.882Z,98784.61
2018-05-10T18:14:59.375Z,98789.80
2018-05-10T18:17:26.956Z,98799.61
2018-05-10T18:19:54.443Z,98804.91
2018-05-10T18:22:21.920Z,98803.70
2018-05-10T18:24:49.431Z,98804.72
2018-05-10T18:27:16.925Z,98811.05
2018-05-10T18:29:44.457Z,98810.81
2018-05-10T18:32:11.914Z,98814.36
2018-05-10T18:34:39.488Z,98811.03
2018-05-10T18:37:07.040Z,98819.42
2018-05-10T18:39:34.655Z,98823.31
2018-05-10T18:42:02.140Z,98829.98
2018-05-10T18:44:29.799Z,98834.04
2018-05-10T18:46:57.291Z,98829.29
2018-05-10T18:49:24.957Z,98836.75
2018-05-10T18:51:52.458Z,98834.58
2018-05-10T18:54:19.983Z,98838.91
2018-05-10T18:56:47.492Z,98839.33
2018-05-10T18:59:15.289Z,98847.31
2018-05-10T19:01:43.043Z,98848.45
2018-05-10T19:04:10.516Z,98850.94
2018-05-10T19:06:38.170Z,98862.92
2018-05-10T19:09:05.756Z,98864.27
2018-05-10T19:11:33.294Z,98865.11
2018-05-10T19:14:00.767Z,98878.48
2018-05-10T19:16:28.276Z,98877.48
2018-05-10T19:18:55.843Z,98881.94
2018-05-10T19:21:23.322Z,98890.56
2018-05-10T19:23:50.887Z,98884.62
2018-05-10T19:26:19.367Z,98895.89
2018-05-10T19:28:46.920Z,98896.87
2018-05-10T19:31:14.438Z,98893.55
2018-05-10T19:33:41.898Z,98905.81
2018-05-10T19:36:09.390Z,98906.95
2018-05-10T19:38:36.934Z,98917.47
2018-05-10T19:41:04.414Z,98912.88
2018-05-10T19:43:31.888Z,98911.48
2018-05-10T19:45:59.387Z,98909.21
2018-05-10T19:48:27.871Z,98920.26
2018-05-10T19:50:55.363Z,98914.00
2018-05-10T19:53:22.938Z,98919.46
2018-05-10T19:55:50.439Z,98925.84
2018-05-10T19:58:18.123Z,98927.52
2018-05-10T20:00:45.601Z,98937.09
2018-05-10T20:03:13.114Z,98947.48
2018-05-10T20:05:40.582Z,98941.26
2018-05-10T20:08:08.064Z,98948.41
2018-05-10T20:10:35.543Z,98951.00
2018-05-10T20:13:03.047Z,98952.21
2018-05-10T20:15:30.540Z,98955.40
2018-05-10T20:17:58.022Z,98955.80
2018-05-10T20:20:25.514Z,98956.59
2018-05-10T20:22:52.994Z,98959.45
2018-05-10T20:25:20.494Z,98957.89
2018-05-10T20:27:48.014Z,98961.62
2018-05-10T20:30:15.507Z,98963.83
2018-05-10T20:32:43.004Z,98964.97
2018-05-10T20:35:10.494Z,98967.28
2018-05-10T20:37:37.989Z,98965.59
2018-05-10T20:40:05.462Z,98967.86
2018-05-10T20:42:33.045Z,98968.12
2018-05-10T20:45:00.460Z,98966.13
2018-05-10T20:47:27.946Z,98961.25
2018-05-10T20:49:55.483Z,98968.11
2018-05-10T20:52:23.012Z,98974.48
2018-05-10T20:54:50.582Z,98972.35
2018-05-10T20:57:18.136Z,98969.56
2018-05-10T20:59:45.633Z,98971.06
2018-05-10T21:02:13.197Z,98974.88
2018-05-10T21:04:40.692Z,98973.80
2018-05-10T21:07:08.185Z,98980.81
2018-05-10T21:09:35.674Z,98974.59
2018-05-10T21:12:03.231Z,98978.68
2018-05-10T21:14:30.811Z,98972.53
2018-05-10T21:16:58.272Z,98974.80
2018-05-10T21:19:25.762Z,98970.39
2018-05-10T21:21:53.258Z,98965.91
2018-05-10T21:24:20.824Z,98977.55
2018-05-10T21:26:48.232Z,98972.20
2018-05-10T21:29:15.731Z,98977.97
2018-05-10T21:31:43.196Z,98973.56
2018-05-10T21:34:10.723Z,98972.92
2018-05-10T21:36:38.182Z,98974.70
2018-05-10T21:39:05.674Z,98977.69
2018-05-10T21:41:33.231Z,98973.86
2018-05-10T21:44:00.706Z,98972.20
2018-05-10T21:46:28.190Z,98970.19
2018-05-10T21:48:58.054Z,98969.55
2018-05-10T21:51:25.538Z,98967.28
2018-05-10T21:53:53.047Z,98970.32
2018-05-10T21:56:20.522Z,98970.86
2018-05-10T21:58:50.356Z,98970.24
2018-05-10T22:01:17.834Z,98970.89
2018-05-10T22:03:45.390Z,98973.43
2018-05-10T22:06:12.943Z,98967.41
2018-05-10T22:08:40.487Z,98968.60
2018-05-10T22:11:08.047Z,98966.61
2018-05-10T22:13:35.571Z,98964.83
2018-05-10T22:16:03.043Z,98960.57
2018-05-10T22:18:30.712Z,98963.21
2018-05-10T22:20:58.095Z,98957.06
2018-05-10T22:23:25.631Z,98958.20
2018-05-10T22:25:53.087Z,98955.92
2018-05-10T22:28:20.642Z,98954.25
2018-05-10T22:30:48.108Z,98954.30
2018-05-10T22:33:15.659Z,98957.91
2018-05-10T22:35:43.142Z,98955.40
2018-05-10T22:38:10.614Z,98954.67
2018-05-10T22:40:38.154Z,98956.52
2018-05-10T22:43:05.715Z,98946.49
2018-05-10T22:45:33.202Z,98943.54
2018-05-10T22:48:00.756Z,98938.37
2018-05-10T22:50:28.254Z,98940.05
2018-05-10T22:52:55.711Z,98939.13
2018-05-10T22:55:23.210Z,98939.78
2018-05-10T22:57:50.686Z,98942.09
2018-05-10T23:00:18.231Z,98940.67
2018-05-10T23:02:45.695Z,98939.78
2018-05-10T23:05:13.234Z,98935.20
2018-05-10T23:07:40.691Z,98937.17
2018-05-10T23:10:08.171Z,98934.69
2018-05-10T23:12:35.626Z,98928.91
2018-05-10T23:15:03.107Z,98938.50
2018-05-10T23:17:30.571Z,98928.45
2018-05-10T23:19:58.094Z,98933.63
2018-05-10T23:22:25.659Z,98932.09
2018-05-10T23:24:53.211Z,98933.86
2018-05-10T23:27:20.864Z,98936.30
2018-05-10T23:29:48.353Z,98930.75
2018-05-10T23:32:15.862Z,98927.97
2018-05-10T23:34:43.380Z,98927.13
2018-05-10T23:37:10.849Z,98928.89
2018-05-10T23:39:38.311Z,98925.50
2018-05-10T23:42:05.878Z,98925.35
2018-05-10T23:44:33.348Z,98921.55
2018-05-10T23:47:00.837Z,98923.20
2018-05-10T23:49:28.347Z,98916.38
2018-05-10T23:51:55.932Z,98913.41
2018-05-10T23:54:23.566Z,98915.53
2018-05-10T23:56:51.130Z,98908.29
2018-05-10T23:59:18.651Z,98911.33
